Harshaw, Wisconsin
Current Conditions -  °F | °C
As of 2:53 AM on Friday 31 Oct 2014 (Local Time) from KRHI Reporting Station
Broken Clouds Broken Clouds  
Wind Chill: 20°   Ceiling: 2300
Heat Index: 29°   Visibility: 10mi
Dew Point: 24°   Wind: 10mph
Humidity: 82%   Direction: 350°N
Pressure: 30.18"   Gusts: 25mph
Location:  45.67°N, 89.66°W
Report Text: KRHI 310753Z AUTO 35009G22KT 10SM SCT018 BKN023 M02/M04 A3018 RMK AO2 PK WND 34032/0710 SNE18 SLP236 P0000 T10171044
Loading
Personal Weather Stations






























Interactive Weather Map
Tropical Storm Tracking
New forecast layout! Learn more

10-Day Weather Forecast

Advertisements
Track Severe Weather on mobile